This is the latest recevied weather packets stored in our database for station/object N4MGC. If no packets are shown the sender has not sent any weather packets the latest 10 day(s).
| Time | Temp. | Humidity | Pressure | Rain* | Wind** | Luminosity | Snow |
|---|---|---|---|---|---|---|---|
| 1777578517 | 21.11° C | 56% | 1013.8 hPa | 0 mm | - | 556 W/m² | - |
| 1777578212 | 21.11° C | 56% | 1013.9 hPa | 0 mm | - | 579 W/m² | - |
| 1777577908 | 21.11° C | 56% | 1013.9 hPa | 0 mm | - | 579 W/m² | - |
| 1777577301 | 21.67° C | 53% | 1013.8 hPa | 0 mm | - | 408 W/m² | - |
| 1777576997 | 21.67° C | 58% | 1014.2 hPa | 0 mm | - | 573 W/m² | - |
| 1777574874 | 21.11° C | 58% | 1014.5 hPa | 0 mm | - | 623 W/m² | - |
| 1777572441 | 20.56° C | 59% | 1014.5 hPa | 0 mm | - | 608 W/m² | - |
| 1777570618 | 20.56° C | 60% | 1014.4 hPa | 0 mm | - | 514 W/m² | - |
| 1777569402 | 19.44° C | 65% | 1014.6 hPa | 0 mm | - | 523 W/m² | - |
| 1777569099 | 19.44° C | 63% | 1014.8 hPa | 0 mm | - | 521 W/m² | - |
| 1777568796 | 19.44° C | 65% | 1014.8 hPa | 0 mm | - | 642 W/m² | - |
| 1777567887 | 19.44° C | 64% | 1014.6 hPa | 0 mm | - | 632 W/m² | - |
| 1777566979 | 19.44° C | 67% | 1014.9 hPa | 0 mm | - | 843 W/m² | - |
| 1777566071 | 19.44° C | 66% | 1015 hPa | 0 mm | - | 651 W/m² | - |
| 1777565766 | 19.44° C | 66% | 1014.9 hPa | 0 mm | - | 708 W/m² | - |
| 1777565463 | 18.33° C | 70% | 1014.7 hPa | 0 mm | - | 697 W/m² | - |
| 1777565159 | 18.89° C | 68% | 1015.1 hPa | 0 mm | - | 613 W/m² | - |
| 1777564855 | 18.89° C | 73% | 1014.8 hPa | 0 mm | - | 609 W/m² | - |
| 1777564550 | 18.89° C | 68% | 1014.9 hPa | 0 mm | - | 606 W/m² | - |
| 1777563338 | 18.33° C | 69% | 1014.6 hPa | 0 mm | - | 725 W/m² | - |
| 1777563035 | 18.33° C | 70% | 1014.9 hPa | 0 mm | - | 675 W/m² | - |
| 1777562730 | 17.78° C | 72% | 1014.8 hPa | 0 mm | - | 740 W/m² | - |
| 1777561824 | 16.67° C | 75% | 1014.8 hPa | 0 mm | - | 688 W/m² | - |
| 1777561216 | 16.67° C | 74% | 1014.8 hPa | 0 mm | - | 235 W/m² | - |
| 1777560915 | 16.67° C | 76% | 1014.6 hPa | 0 mm | - | 216 W/m² | - |
* Rain latest hour (hover to see other rain measurements)
** Current wind speed in m/s (hover to see current wind gust speed)